KMVL/MVL METAR and TAF weather

Enter ICAO airport designator
Station Type Date Time Source
KMVL METAR 2019/10/23 07:16 UTC NOAA

KMVL 230716Z AUTO 19006KT 9SM -RA FEW024 OVC031 10/09 A2983 RMK AO2 P0001 T01000094


Station Type Date Time Source
KMVL Decoded METAR 2019/10/23 07:16 UTC NOAA

MORRISVILLE STOWE STATE AIRPORT , VT, United States (KMVL) 44-32N 72-37W 223M
Oct 23, 2019 - 03:16 AM EDT / 2019.10.23 0716 UTC
Wind: from the S (190 degrees) at 7 MPH (6 KT):0
Visibility: 9 mile(s):0
Sky conditions: overcast
Weather: light rain
Precipitation last hour: 0.01 inches
Temperature: 50.0 F (10.0 C)
Dew Point: 48.9 F (9.4 C)
Relative Humidity: 96%
Pressure (altimeter): 29.83 in. Hg (1010 hPa)
ob: KMVL 230716Z AUTO 19006KT 9SM -RA FEW024 OVC031 10/09 A2983 RMK AO2 P0001 T01000094
cycle: 7

Station Type Date Time Source
KMVL TAF UTC NOAA

Error!

Example: see airport list